Spencer, Nebraska
Current Conditions -  °F | °C
As of 11:15 AM on Friday 19 Dec 2014 (Local Time) from KONL Reporting Station
Moderate Fog Moderate Fog  
Wind Chill: 20°   Ceiling: 100
Heat Index: 27°   Visibility: 0.5mi
Dew Point: 27°   Wind: 6mph
Humidity: 100%   Direction: 200°SSW
Pressure: 30.09"   Gusts: NA
Location:  42.87°N, 98.7°W
Report Text: KONL 191715Z AUTO 20005KT 1/2SM FZFG OVC001 M03/M03 A3009 RMK AO2 T10301030
Loading
Personal Weather Stations






























Interactive Weather Map New forecast layout! Learn more

10-Day Weather Forecast

Advertisements
Track Severe Weather on mobile